sensor_id;sensor_type;location;lat;lon;timestamp;temperature;humidity
38239;DHT22;24035;48.900;9.188;2023-04-03T00:02:13;3.90;99.90
38239;DHT22;24035;48.900;9.188;2023-04-03T00:04:39;3.90;99.90
38239;DHT22;24035;48.900;9.188;2023-04-03T00:07:05;3.80;99.90
38239;DHT22;24035;48.900;9.188;2023-04-03T00:09:30;3.80;99.90
38239;DHT22;24035;48.900;9.188;2023-04-03T00:11:56;3.70;99.90
38239;DHT22;24035;48.900;9.188;2023-04-03T00:14:22;3.80;99.90
38239;DHT22;24035;48.900;9.188;2023-04-03T00:16:47;3.80;99.90
38239;DHT22;24035;48.900;9.188;2023-04-03T00:19:13;3.70;99.90
38239;DHT22;24035;48.900;9.188;2023-04-03T00:21:39;3.80;99.90
38239;DHT22;24035;48.900;9.188;2023-04-03T00:24:05;3.80;99.90
38239;DHT22;24035;48.900;9.188;2023-04-03T00:26:31;3.70;99.90
38239;DHT22;24035;48.900;9.188;2023-04-03T00:28:56;3.80;99.90
38239;DHT22;24035;48.900;9.188;2023-04-03T00:31:22;3.80;99.90
38239;DHT22;24035;48.900;9.188;2023-04-03T00:33:48;3.80;99.90
38239;DHT22;24035;48.900;9.188;2023-04-03T00:36:13;3.70;99.90
38239;DHT22;24035;48.900;9.188;2023-04-03T00:38:39;3.70;99.90
38239;DHT22;24035;48.900;9.188;2023-04-03T00:41:05;3.70;99.90
38239;DHT22;24035;48.900;9.188;2023-04-03T00:43:32;3.60;99.90
38239;DHT22;24035;48.900;9.188;2023-04-03T00:45:58;3.70;99.90
38239;DHT22;24035;48.900;9.188;2023-04-03T00:48:31;3.70;99.90
38239;DHT22;24035;48.900;9.188;2023-04-03T00:50:59;3.70;99.90
38239;DHT22;24035;48.900;9.188;2023-04-03T00:53:37;3.70;99.90
38239;DHT22;24035;48.900;9.188;2023-04-03T00:56:06;3.60;99.90
38239;DHT22;24035;48.900;9.188;2023-04-03T00:58:39;3.60;99.90
38239;DHT22;24035;48.900;9.188;2023-04-03T01:01:08;3.60;99.90
38239;DHT22;24035;48.900;9.188;2023-04-03T01:03:37;3.50;99.90
38239;DHT22;24035;48.900;9.188;2023-04-03T01:06:02;3.50;99.90
38239;DHT22;24035;48.900;9.188;2023-04-03T01:08:28;3.50;99.90
38239;DHT22;24035;48.900;9.188;2023-04-03T01:10:54;3.50;99.90
38239;DHT22;24035;48.900;9.188;2023-04-03T01:13:32;3.50;1.00
38239;DHT22;24035;48.900;9.188;2023-04-03T01:16:01;3.50;99.90
38239;DHT22;24035;48.900;9.188;2023-04-03T01:18:28;3.50;1.00
38239;DHT22;24035;48.900;9.188;2023-04-03T01:26:28;3.40;1.00
38239;DHT22;24035;48.900;9.188;2023-04-03T01:28:54;3.50;1.00
38239;DHT22;24035;48.900;9.188;2023-04-03T01:34:01;3.40;1.00
38239;DHT22;24035;48.900;9.188;2023-04-03T01:36:29;3.40;1.00
38239;DHT22;24035;48.900;9.188;2023-04-03T01:38:57;3.40;1.00
38239;DHT22;24035;48.900;9.188;2023-04-03T01:41:23;3.40;1.00
38239;DHT22;24035;48.900;9.188;2023-04-03T01:43:49;3.40;99.90
38239;DHT22;24035;48.900;9.188;2023-04-03T01:46:16;3.30;99.90
38239;DHT22;24035;48.900;9.188;2023-04-03T01:48:42;3.30;99.90
38239;DHT22;24035;48.900;9.188;2023-04-03T01:51:08;3.30;99.90
38239;DHT22;24035;48.900;9.188;2023-04-03T01:53:33;3.40;99.90
38239;DHT22;24035;48.900;9.188;2023-04-03T01:55:59;3.30;99.90
38239;DHT22;24035;48.900;9.188;2023-04-03T01:58:25;3.30;99.90
38239;DHT22;24035;48.900;9.188;2023-04-03T02:00:51;3.40;99.90
38239;DHT22;24035;48.900;9.188;2023-04-03T02:03:17;3.30;99.90
38239;DHT22;24035;48.900;9.188;2023-04-03T02:05:43;3.30;99.90
38239;DHT22;24035;48.900;9.188;2023-04-03T02:08:08;3.30;99.90
38239;DHT22;24035;48.900;9.188;2023-04-03T02:10:34;3.30;99.90
38239;DHT22;24035;48.900;9.188;2023-04-03T02:13:00;3.20;99.90
38239;DHT22;24035;48.900;9.188;2023-04-03T02:15:25;3.30;99.90
38239;DHT22;24035;48.900;9.188;2023-04-03T02:17:51;3.30;99.90
38239;DHT22;24035;48.900;9.188;2023-04-03T02:20:18;3.30;99.90
38239;DHT22;24035;48.900;9.188;2023-04-03T02:22:43;3.40;99.90
38239;DHT22;24035;48.900;9.188;2023-04-03T02:25:09;3.40;77.50
38239;DHT22;24035;48.900;9.188;2023-04-03T02:27:36;3.40;3.20
38239;DHT22;24035;48.900;9.188;2023-04-03T02:30:03;3.40;1.00
38239;DHT22;24035;48.900;9.188;2023-04-03T02:32:29;3.40;1.00
38239;DHT22;24035;48.900;9.188;2023-04-03T02:34:55;3.40;1.00
38239;DHT22;24035;48.900;9.188;2023-04-03T02:37:20;3.40;1.00
38239;DHT22;24035;48.900;9.188;2023-04-03T02:39:46;3.50;1.00
38239;DHT22;24035;48.900;9.188;2023-04-03T02:42:12;3.50;1.00
38239;DHT22;24035;48.900;9.188;2023-04-03T02:44:38;3.50;1.00
38239;DHT22;24035;48.900;9.188;2023-04-03T02:47:04;3.50;1.00
38239;DHT22;24035;48.900;9.188;2023-04-03T02:49:30;3.50;1.00
38239;DHT22;24035;48.900;9.188;2023-04-03T02:51:56;3.40;1.00
38239;DHT22;24035;48.900;9.188;2023-04-03T02:54:22;3.40;1.00
38239;DHT22;24035;48.900;9.188;2023-04-03T02:56:49;3.30;1.00
38239;DHT22;24035;48.900;9.188;2023-04-03T02:59:15;3.30;1.00
38239;DHT22;24035;48.900;9.188;2023-04-03T03:01:41;3.20;1.00
38239;DHT22;24035;48.900;9.188;2023-04-03T03:04:06;3.20;1.00
38239;DHT22;24035;48.900;9.188;2023-04-03T03:06:32;3.20;1.00
38239;DHT22;24035;48.900;9.188;2023-04-03T03:08:58;3.20;1.00
38239;DHT22;24035;48.900;9.188;2023-04-03T03:11:23;3.20;1.00
38239;DHT22;24035;48.900;9.188;2023-04-03T03:13:50;3.20;1.00
38239;DHT22;24035;48.900;9.188;2023-04-03T03:16:16;3.20;1.00
38239;DHT22;24035;48.900;9.188;2023-04-03T03:18:41;3.30;1.00
38239;DHT22;24035;48.900;9.188;2023-04-03T03:21:09;3.30;1.00
38239;DHT22;24035;48.900;9.188;2023-04-03T03:23:36;3.30;1.00
38239;DHT22;24035;48.900;9.188;2023-04-03T03:26:05;3.40;1.00
38239;DHT22;24035;48.900;9.188;2023-04-03T03:28:31;3.50;1.00
38239;DHT22;24035;48.900;9.188;2023-04-03T03:30:57;3.50;1.00
38239;DHT22;24035;48.900;9.188;2023-04-03T03:33:24;3.50;1.00
38239;DHT22;24035;48.900;9.188;2023-04-03T03:35:51;3.50;1.00
38239;DHT22;24035;48.900;9.188;2023-04-03T03:38:16;3.50;1.00
38239;DHT22;24035;48.900;9.188;2023-04-03T03:40:42;3.50;1.00
38239;DHT22;24035;48.900;9.188;2023-04-03T03:43:07;3.60;1.00
38239;DHT22;24035;48.900;9.188;2023-04-03T03:45:33;3.50;1.00
38239;DHT22;24035;48.900;9.188;2023-04-03T03:47:59;3.60;1.00
38239;DHT22;24035;48.900;9.188;2023-04-03T03:50:25;3.70;1.00
38239;DHT22;24035;48.900;9.188;2023-04-03T03:52:50;3.70;1.00
38239;DHT22;24035;48.900;9.188;2023-04-03T03:55:16;3.70;1.00
38239;DHT22;24035;48.900;9.188;2023-04-03T03:57:42;3.80;1.00
38239;DHT22;24035;48.900;9.188;2023-04-03T04:00:08;3.70;1.00
38239;DHT22;24035;48.900;9.188;2023-04-03T04:02:34;3.70;1.00
38239;DHT22;24035;48.900;9.188;2023-04-03T04:04:59;3.70;1.00
38239;DHT22;24035;48.900;9.188;2023-04-03T04:07:25;3.70;1.00
38239;DHT22;24035;48.900;9.188;2023-04-03T04:09:53;3.70;1.00
38239;DHT22;24035;48.900;9.188;2023-04-03T04:12:19;3.80;1.00
38239;DHT22;24035;48.900;9.188;2023-04-03T04:14:45;3.80;1.00
38239;DHT22;24035;48.900;9.188;2023-04-03T04:17:13;3.70;1.00
38239;DHT22;24035;48.900;9.188;2023-04-03T04:19:38;3.70;1.00
38239;DHT22;24035;48.900;9.188;2023-04-03T04:22:04;3.80;1.00
38239;DHT22;24035;48.900;9.188;2023-04-03T04:24:30;3.80;1.00
38239;DHT22;24035;48.900;9.188;2023-04-03T04:26:55;3.80;1.00
38239;DHT22;24035;48.900;9.188;2023-04-03T04:29:21;3.70;1.00
38239;DHT22;24035;48.900;9.188;2023-04-03T04:31:46;3.60;1.00
38239;DHT22;24035;48.900;9.188;2023-04-03T04:34:12;3.60;1.00
38239;DHT22;24035;48.900;9.188;2023-04-03T04:36:40;3.60;1.00
38239;DHT22;24035;48.900;9.188;2023-04-03T04:39:06;3.60;1.00
38239;DHT22;24035;48.900;9.188;2023-04-03T04:41:32;3.60;1.00
38239;DHT22;24035;48.900;9.188;2023-04-03T04:43:58;3.70;1.00
38239;DHT22;24035;48.900;9.188;2023-04-03T04:46:24;3.70;1.00
38239;DHT22;24035;48.900;9.188;2023-04-03T04:48:49;3.60;1.00
38239;DHT22;24035;48.900;9.188;2023-04-03T04:51:15;3.60;1.00
38239;DHT22;24035;48.900;9.188;2023-04-03T04:53:41;3.60;1.00
38239;DHT22;24035;48.900;9.188;2023-04-03T04:56:07;3.60;1.00
38239;DHT22;24035;48.900;9.188;2023-04-03T04:58:33;3.60;1.00
38239;DHT22;24035;48.900;9.188;2023-04-03T05:01:03;3.70;1.00
38239;DHT22;24035;48.900;9.188;2023-04-03T05:03:30;3.70;1.00
38239;DHT22;24035;48.900;9.188;2023-04-03T05:05:55;3.60;1.00
38239;DHT22;24035;48.900;9.188;2023-04-03T05:08:21;3.50;1.00
38239;DHT22;24035;48.900;9.188;2023-04-03T05:10:47;3.50;1.00
38239;DHT22;24035;48.900;9.188;2023-04-03T05:13:14;3.50;1.00
38239;DHT22;24035;48.900;9.188;2023-04-03T05:15:39;3.30;1.00
38239;DHT22;24035;48.900;9.188;2023-04-03T05:18:05;3.20;53.50
38239;DHT22;24035;48.900;9.188;2023-04-03T05:20:32;3.10;99.90
38239;DHT22;24035;48.900;9.188;2023-04-03T05:22:58;3.20;99.90
38239;DHT22;24035;48.900;9.188;2023-04-03T05:25:23;3.20;99.90
38239;DHT22;24035;48.900;9.188;2023-04-03T05:27:50;3.30;91.50
38239;DHT22;24035;48.900;9.188;2023-04-03T05:30:16;3.30;12.80
38239;DHT22;24035;48.900;9.188;2023-04-03T05:32:41;3.30;10.00
38239;DHT22;24035;48.900;9.188;2023-04-03T05:35:08;3.20;1.00
38239;DHT22;24035;48.900;9.188;2023-04-03T05:37:34;3.10;36.00
38239;DHT22;24035;48.900;9.188;2023-04-03T05:40:00;3.00;96.20
38239;DHT22;24035;48.900;9.188;2023-04-03T05:42:26;3.10;64.00
38239;DHT22;24035;48.900;9.188;2023-04-03T05:44:51;3.10;77.70
38239;DHT22;24035;48.900;9.188;2023-04-03T05:47:18;3.10;94.60
38239;DHT22;24035;48.900;9.188;2023-04-03T05:49:45;3.20;79.80
38239;DHT22;24035;48.900;9.188;2023-04-03T05:52:22;3.30;1.00
38239;DHT22;24035;48.900;9.188;2023-04-03T05:54:48;3.30;1.00
38239;DHT22;24035;48.900;9.188;2023-04-03T05:57:15;3.40;1.00
38239;DHT22;24035;48.900;9.188;2023-04-03T05:59:42;3.40;1.00
38239;DHT22;24035;48.900;9.188;2023-04-03T06:02:11;3.40;79.40
38239;DHT22;24035;48.900;9.188;2023-04-03T06:04:37;3.40;43.90
38239;DHT22;24035;48.900;9.188;2023-04-03T06:07:03;3.50;1.00
38239;DHT22;24035;48.900;9.188;2023-04-03T06:09:29;3.60;1.00
38239;DHT22;24035;48.900;9.188;2023-04-03T06:11:55;3.70;1.00
38239;DHT22;24035;48.900;9.188;2023-04-03T06:14:21;3.70;1.00
38239;DHT22;24035;48.900;9.188;2023-04-03T06:16:47;3.80;13.00
38239;DHT22;24035;48.900;9.188;2023-04-03T06:19:12;3.70;1.00
38239;DHT22;24035;48.900;9.188;2023-04-03T06:21:38;3.70;1.00
38239;DHT22;24035;48.900;9.188;2023-04-03T06:24:04;3.70;1.00
38239;DHT22;24035;48.900;9.188;2023-04-03T06:26:31;3.70;1.00
38239;DHT22;24035;48.900;9.188;2023-04-03T06:28:57;3.80;1.00
38239;DHT22;24035;48.900;9.188;2023-04-03T06:31:23;3.90;1.00
38239;DHT22;24035;48.900;9.188;2023-04-03T06:33:49;3.90;1.00
38239;DHT22;24035;48.900;9.188;2023-04-03T06:36:15;3.90;1.00
38239;DHT22;24035;48.900;9.188;2023-04-03T06:38:45;4.00;1.00
38239;DHT22;24035;48.900;9.188;2023-04-03T06:41:11;4.10;1.00
38239;DHT22;24035;48.900;9.188;2023-04-03T06:43:36;4.20;1.00
38239;DHT22;24035;48.900;9.188;2023-04-03T06:46:02;4.30;1.00
38239;DHT22;24035;48.900;9.188;2023-04-03T06:48:31;4.50;1.00
38239;DHT22;24035;48.900;9.188;2023-04-03T06:50:57;4.30;1.00
38239;DHT22;24035;48.900;9.188;2023-04-03T06:53:23;4.20;1.00
38239;DHT22;24035;48.900;9.188;2023-04-03T06:55:49;4.30;1.00
38239;DHT22;24035;48.900;9.188;2023-04-03T06:58:16;4.30;1.00
38239;DHT22;24035;48.900;9.188;2023-04-03T07:00:42;4.40;1.00
38239;DHT22;24035;48.900;9.188;2023-04-03T07:03:08;4.50;1.00
38239;DHT22;24035;48.900;9.188;2023-04-03T07:05:34;4.50;1.00
38239;DHT22;24035;48.900;9.188;2023-04-03T07:08:00;4.40;1.00
38239;DHT22;24035;48.900;9.188;2023-04-03T07:10:26;4.60;1.00
38239;DHT22;24035;48.900;9.188;2023-04-03T07:12:52;4.90;1.00
38239;DHT22;24035;48.900;9.188;2023-04-03T07:15:18;5.20;1.00
38239;DHT22;24035;48.900;9.188;2023-04-03T07:17:43;5.50;1.00
38239;DHT22;24035;48.900;9.188;2023-04-03T07:20:09;5.40;1.00
38239;DHT22;24035;48.900;9.188;2023-04-03T07:22:36;5.00;1.00
38239;DHT22;24035;48.900;9.188;2023-04-03T07:25:01;4.80;1.00
38239;DHT22;24035;48.900;9.188;2023-04-03T07:27:28;4.80;1.00
38239;DHT22;24035;48.900;9.188;2023-04-03T07:29:53;4.90;1.00
38239;DHT22;24035;48.900;9.188;2023-04-03T07:32:21;5.00;1.00
38239;DHT22;24035;48.900;9.188;2023-04-03T07:34:46;5.10;1.00
38239;DHT22;24035;48.900;9.188;2023-04-03T07:37:12;5.30;1.00
38239;DHT22;24035;48.900;9.188;2023-04-03T07:39:38;5.20;1.00
38239;DHT22;24035;48.900;9.188;2023-04-03T07:42:04;5.20;1.00
38239;DHT22;24035;48.900;9.188;2023-04-03T07:44:29;5.30;1.00
38239;DHT22;24035;48.900;9.188;2023-04-03T07:46:56;5.30;1.00
38239;DHT22;24035;48.900;9.188;2023-04-03T07:49:22;5.40;1.00
38239;DHT22;24035;48.900;9.188;2023-04-03T07:51:49;5.50;1.00
38239;DHT22;24035;48.900;9.188;2023-04-03T07:54:15;5.30;1.00
38239;DHT22;24035;48.900;9.188;2023-04-03T07:56:41;5.40;1.00
38239;DHT22;24035;48.900;9.188;2023-04-03T07:59:08;5.60;1.00
38239;DHT22;24035;48.900;9.188;2023-04-03T08:01:35;5.50;1.00
38239;DHT22;24035;48.900;9.188;2023-04-03T08:04:00;5.70;1.00
38239;DHT22;24035;48.900;9.188;2023-04-03T08:06:26;5.70;99.90
38239;DHT22;24035;48.900;9.188;2023-04-03T08:08:52;5.80;99.90
38239;DHT22;24035;48.900;9.188;2023-04-03T08:11:17;6.10;99.90
38239;DHT22;24035;48.900;9.188;2023-04-03T08:13:44;6.00;99.90
38239;DHT22;24035;48.900;9.188;2023-04-03T08:16:17;6.10;99.90
38239;DHT22;24035;48.900;9.188;2023-04-03T08:18:43;6.30;99.90
38239;DHT22;24035;48.900;9.188;2023-04-03T08:21:10;6.20;99.90
38239;DHT22;24035;48.900;9.188;2023-04-03T08:23:38;6.10;99.90
38239;DHT22;24035;48.900;9.188;2023-04-03T08:26:08;6.50;99.90
38239;DHT22;24035;48.900;9.188;2023-04-03T08:28:34;6.70;99.90
38239;DHT22;24035;48.900;9.188;2023-04-03T08:31:05;6.70;99.90
38239;DHT22;24035;48.900;9.188;2023-04-03T08:33:31;6.30;99.90
38239;DHT22;24035;48.900;9.188;2023-04-03T08:35:57;6.10;99.90
38239;DHT22;24035;48.900;9.188;2023-04-03T08:38:23;6.00;99.90
38239;DHT22;24035;48.900;9.188;2023-04-03T08:41:01;6.10;99.90
38239;DHT22;24035;48.900;9.188;2023-04-03T08:43:33;6.70;99.90
38239;DHT22;24035;48.900;9.188;2023-04-03T08:46:00;6.60;99.90
38239;DHT22;24035;48.900;9.188;2023-04-03T08:48:31;6.50;99.90
38239;DHT22;24035;48.900;9.188;2023-04-03T08:51:04;6.50;99.90
38239;DHT22;24035;48.900;9.188;2023-04-03T08:53:40;6.70;99.90
38239;DHT22;24035;48.900;9.188;2023-04-03T08:56:11;6.70;99.90
38239;DHT22;24035;48.900;9.188;2023-04-03T08:59:10;6.50;99.90
38239;DHT22;24035;48.900;9.188;2023-04-03T09:01:41;6.50;99.90
38239;DHT22;24035;48.900;9.188;2023-04-03T09:04:15;6.70;99.90
38239;DHT22;24035;48.900;9.188;2023-04-03T09:06:48;6.60;99.90
38239;DHT22;24035;48.900;9.188;2023-04-03T09:17:41;7.10;99.90
38239;DHT22;24035;48.900;9.188;2023-04-03T09:22:53;7.30;99.90
38239;DHT22;24035;48.900;9.188;2023-04-03T09:25:28;7.70;99.90
38239;DHT22;24035;48.900;9.188;2023-04-03T09:27:55;8.00;99.90
38239;DHT22;24035;48.900;9.188;2023-04-03T09:30:24;8.20;99.90
38239;DHT22;24035;48.900;9.188;2023-04-03T09:32:55;8.10;99.90
38239;DHT22;24035;48.900;9.188;2023-04-03T09:35:30;7.70;99.90
38239;DHT22;24035;48.900;9.188;2023-04-03T09:38:01;7.50;99.90
38239;DHT22;24035;48.900;9.188;2023-04-03T09:40:31;7.80;99.90
38239;DHT22;24035;48.900;9.188;2023-04-03T09:43:02;7.90;99.90
38239;DHT22;24035;48.900;9.188;2023-04-03T09:45:31;7.80;99.90
38239;DHT22;24035;48.900;9.188;2023-04-03T09:50:53;7.30;99.90
38239;DHT22;24035;48.900;9.188;2023-04-03T09:55:54;7.20;99.90
38239;DHT22;24035;48.900;9.188;2023-04-03T10:00:55;7.40;99.90
38239;DHT22;24035;48.900;9.188;2023-04-03T10:03:34;7.50;99.90
38239;DHT22;24035;48.900;9.188;2023-04-03T10:06:02;7.50;97.10
38239;DHT22;24035;48.900;9.188;2023-04-03T10:08:33;7.60;94.80
38239;DHT22;24035;48.900;9.188;2023-04-03T10:13:53;7.50;95.40
38239;DHT22;24035;48.900;9.188;2023-04-03T10:16:25;7.50;94.20
38239;DHT22;24035;48.900;9.188;2023-04-03T10:19:14;7.10;94.30
38239;DHT22;24035;48.900;9.188;2023-04-03T10:21:50;7.10;99.40
38239;DHT22;24035;48.900;9.188;2023-04-03T10:24:28;7.30;95.10
38239;DHT22;24035;48.900;9.188;2023-04-03T10:27:19;7.40;95.90
38239;DHT22;24035;48.900;9.188;2023-04-03T10:30:04;7.90;82.90
38239;DHT22;24035;48.900;9.188;2023-04-03T10:35:20;8.10;76.00
38239;DHT22;24035;48.900;9.188;2023-04-03T10:43:42;8.20;36.60
38239;DHT22;24035;48.900;9.188;2023-04-03T10:46:44;8.30;34.80
38239;DHT22;24035;48.900;9.188;2023-04-03T10:57:36;7.70;41.70
38239;DHT22;24035;48.900;9.188;2023-04-03T11:00:15;7.80;34.10
38239;DHT22;24035;48.900;9.188;2023-04-03T11:03:06;7.80;28.10
38239;DHT22;24035;48.900;9.188;2023-04-03T11:10:49;7.30;20.00
38239;DHT22;24035;48.900;9.188;2023-04-03T11:13:39;7.50;23.60
38239;DHT22;24035;48.900;9.188;2023-04-03T11:16:06;7.40;29.90
38239;DHT22;24035;48.900;9.188;2023-04-03T11:18:49;7.40;36.00
38239;DHT22;24035;48.900;9.188;2023-04-03T11:21:28;7.50;28.80
38239;DHT22;24035;48.900;9.188;2023-04-03T11:23:57;7.10;37.10
38239;DHT22;24035;48.900;9.188;2023-04-03T11:26:29;7.10;35.60
38239;DHT22;24035;48.900;9.188;2023-04-03T11:29:08;7.10;40.30
38239;DHT22;24035;48.900;9.188;2023-04-03T11:32:36;7.10;37.00
38239;DHT22;24035;48.900;9.188;2023-04-03T11:34:40;7.30;41.60
38239;DHT22;24035;48.900;9.188;2023-04-03T11:40:04;7.50;31.20
38239;DHT22;24035;48.900;9.188;2023-04-03T11:42:39;7.60;30.80
38239;DHT22;24035;48.900;9.188;2023-04-03T11:48:01;7.40;39.20
38239;DHT22;24035;48.900;9.188;2023-04-03T12:08:27;7.60;37.70
38239;DHT22;24035;48.900;9.188;2023-04-03T12:13:35;7.70;32.20
38239;DHT22;24035;48.900;9.188;2023-04-03T12:16:02;8.00;39.30
38239;DHT22;24035;48.900;9.188;2023-04-03T12:26:51;7.70;23.90
38239;DHT22;24035;48.900;9.188;2023-04-03T12:32:07;7.50;22.40
38239;DHT22;24035;48.900;9.188;2023-04-03T12:43:02;8.10;17.40
38239;DHT22;24035;48.900;9.188;2023-04-03T12:45:47;8.40;18.10
38239;DHT22;24035;48.900;9.188;2023-04-03T12:48:17;8.40;21.00
38239;DHT22;24035;48.900;9.188;2023-04-03T12:50:45;8.30;18.20
38239;DHT22;24035;48.900;9.188;2023-04-03T12:53:23;8.10;16.50
38239;DHT22;24035;48.900;9.188;2023-04-03T12:55:55;8.10;14.50
38239;DHT22;24035;48.900;9.188;2023-04-03T12:58:26;8.00;10.60
38239;DHT22;24035;48.900;9.188;2023-04-03T13:01:09;7.80;9.80
38239;DHT22;24035;48.900;9.188;2023-04-03T13:03:39;7.90;9.40
38239;DHT22;24035;48.900;9.188;2023-04-03T13:06:06;7.80;16.30
38239;DHT22;24035;48.900;9.188;2023-04-03T13:08:32;7.70;16.50
38239;DHT22;24035;48.900;9.188;2023-04-03T13:11:05;7.90;18.10
38239;DHT22;24035;48.900;9.188;2023-04-03T13:13:31;8.00;21.40
38239;DHT22;24035;48.900;9.188;2023-04-03T13:15:57;8.30;16.20
38239;DHT22;24035;48.900;9.188;2023-04-03T13:18:27;8.40;14.80
38239;DHT22;24035;48.900;9.188;2023-04-03T13:20:56;8.40;16.20
38239;DHT22;24035;48.900;9.188;2023-04-03T13:23:22;8.70;26.70
38239;DHT22;24035;48.900;9.188;2023-04-03T13:25:49;8.80;15.70
38239;DHT22;24035;48.900;9.188;2023-04-03T13:28:20;8.80;16.20
38239;DHT22;24035;48.900;9.188;2023-04-03T13:33:24;8.70;19.20
38239;DHT22;24035;48.900;9.188;2023-04-03T13:35:56;8.50;36.00
38239;DHT22;24035;48.900;9.188;2023-04-03T13:38:26;8.40;29.50
38239;DHT22;24035;48.900;9.188;2023-04-03T13:40:58;8.60;33.10
38239;DHT22;24035;48.900;9.188;2023-04-03T13:43:35;8.70;36.80
38239;DHT22;24035;48.900;9.188;2023-04-03T13:48:42;8.90;28.70
38239;DHT22;24035;48.900;9.188;2023-04-03T13:53:55;8.70;1.40
38239;DHT22;24035;48.900;9.188;2023-04-03T14:01:55;8.20;1.00
38239;DHT22;24035;48.900;9.188;2023-04-03T14:07:06;8.30;1.00
38239;DHT22;24035;48.900;9.188;2023-04-03T14:09:31;8.20;1.00
38239;DHT22;24035;48.900;9.188;2023-04-03T14:12:02;8.10;1.00
38239;DHT22;24035;48.900;9.188;2023-04-03T14:14:32;8.10;1.00
38239;DHT22;24035;48.900;9.188;2023-04-03T14:17:00;8.40;1.00
38239;DHT22;24035;48.900;9.188;2023-04-03T14:19:32;8.60;1.00
38239;DHT22;24035;48.900;9.188;2023-04-03T14:21:59;8.90;1.00
38239;DHT22;24035;48.900;9.188;2023-04-03T14:24:26;8.80;1.20
38239;DHT22;24035;48.900;9.188;2023-04-03T14:26:54;8.50;1.00
38239;DHT22;24035;48.900;9.188;2023-04-03T14:29:20;8.20;1.00
38239;DHT22;24035;48.900;9.188;2023-04-03T14:31:48;8.10;1.00
38239;DHT22;24035;48.900;9.188;2023-04-03T14:34:14;8.00;1.00
38239;DHT22;24035;48.900;9.188;2023-04-03T14:36:42;8.00;1.00
38239;DHT22;24035;48.900;9.188;2023-04-03T14:39:11;8.10;1.00
38239;DHT22;24035;48.900;9.188;2023-04-03T14:41:41;8.30;1.00
38239;DHT22;24035;48.900;9.188;2023-04-03T14:44:07;8.50;1.00
38239;DHT22;24035;48.900;9.188;2023-04-03T14:46:36;8.60;1.00
38239;DHT22;24035;48.900;9.188;2023-04-03T14:49:03;8.40;1.00
38239;DHT22;24035;48.900;9.188;2023-04-03T14:51:33;8.30;1.00
38239;DHT22;24035;48.900;9.188;2023-04-03T14:54:00;7.90;1.00
38239;DHT22;24035;48.900;9.188;2023-04-03T14:56:27;7.60;1.80
38239;DHT22;24035;48.900;9.188;2023-04-03T14:59:01;7.50;1.00
38239;DHT22;24035;48.900;9.188;2023-04-03T15:01:27;7.40;1.00
38239;DHT22;24035;48.900;9.188;2023-04-03T15:03:53;7.30;1.00
38239;DHT22;24035;48.900;9.188;2023-04-03T15:06:20;7.40;1.00
38239;DHT22;24035;48.900;9.188;2023-04-03T15:08:47;7.60;1.00
38239;DHT22;24035;48.900;9.188;2023-04-03T15:11:14;7.90;1.00
38239;DHT22;24035;48.900;9.188;2023-04-03T15:13:40;8.30;1.00
38239;DHT22;24035;48.900;9.188;2023-04-03T15:16:15;8.50;1.00
38239;DHT22;24035;48.900;9.188;2023-04-03T15:18:41;8.40;1.00
38239;DHT22;24035;48.900;9.188;2023-04-03T15:21:07;8.20;1.00
38239;DHT22;24035;48.900;9.188;2023-04-03T15:23:32;7.90;1.00
38239;DHT22;24035;48.900;9.188;2023-04-03T15:25:58;7.40;1.00
38239;DHT22;24035;48.900;9.188;2023-04-03T15:28:54;7.20;1.00
38239;DHT22;24035;48.900;9.188;2023-04-03T15:31:19;6.90;1.00
38239;DHT22;24035;48.900;9.188;2023-04-03T15:33:45;6.80;1.00
38239;DHT22;24035;48.900;9.188;2023-04-03T15:36:10;6.80;1.00
38239;DHT22;24035;48.900;9.188;2023-04-03T15:38:36;7.00;1.00
38239;DHT22;24035;48.900;9.188;2023-04-03T15:41:04;7.20;1.00
38239;DHT22;24035;48.900;9.188;2023-04-03T15:43:30;7.50;1.00
38239;DHT22;24035;48.900;9.188;2023-04-03T15:45:57;7.70;1.00
38239;DHT22;24035;48.900;9.188;2023-04-03T15:48:23;8.00;1.00
38239;DHT22;24035;48.900;9.188;2023-04-03T15:50:49;8.10;1.00
38239;DHT22;24035;48.900;9.188;2023-04-03T15:53:15;8.10;1.00
38239;DHT22;24035;48.900;9.188;2023-04-03T15:55:40;8.00;1.00
38239;DHT22;24035;48.900;9.188;2023-04-03T15:58:06;7.70;1.00
38239;DHT22;24035;48.900;9.188;2023-04-03T16:00:32;7.40;1.00
38239;DHT22;24035;48.900;9.188;2023-04-03T16:03:10;7.20;1.00
38239;DHT22;24035;48.900;9.188;2023-04-03T16:05:37;7.00;1.00
38239;DHT22;24035;48.900;9.188;2023-04-03T16:08:04;6.90;1.00
38239;DHT22;24035;48.900;9.188;2023-04-03T16:10:31;6.80;1.00
38239;DHT22;24035;48.900;9.188;2023-04-03T16:12:56;6.70;1.00
38239;DHT22;24035;48.900;9.188;2023-04-03T16:15:23;6.80;1.00
38239;DHT22;24035;48.900;9.188;2023-04-03T16:17:50;7.00;1.00
38239;DHT22;24035;48.900;9.188;2023-04-03T16:20:16;7.20;1.00
38239;DHT22;24035;48.900;9.188;2023-04-03T16:22:42;7.50;1.00
38239;DHT22;24035;48.900;9.188;2023-04-03T16:25:08;7.70;1.00
38239;DHT22;24035;48.900;9.188;2023-04-03T16:27:34;7.50;1.00
38239;DHT22;24035;48.900;9.188;2023-04-03T16:30:01;7.50;1.00
38239;DHT22;24035;48.900;9.188;2023-04-03T16:32:29;7.50;1.00
38239;DHT22;24035;48.900;9.188;2023-04-03T16:34:56;7.30;1.00
38239;DHT22;24035;48.900;9.188;2023-04-03T16:37:22;7.00;1.00
38239;DHT22;24035;48.900;9.188;2023-04-03T16:39:48;6.80;1.00
38239;DHT22;24035;48.900;9.188;2023-04-03T16:42:14;6.60;1.00
38239;DHT22;24035;48.900;9.188;2023-04-03T16:44:40;6.60;1.00
38239;DHT22;24035;48.900;9.188;2023-04-03T16:47:06;6.50;1.00
38239;DHT22;24035;48.900;9.188;2023-04-03T16:49:33;6.60;1.00
38239;DHT22;24035;48.900;9.188;2023-04-03T16:52:03;6.60;1.00
38239;DHT22;24035;48.900;9.188;2023-04-03T16:54:30;6.70;1.00
38239;DHT22;24035;48.900;9.188;2023-04-03T16:56:56;6.60;1.00
38239;DHT22;24035;48.900;9.188;2023-04-03T16:59:22;6.80;1.00
38239;DHT22;24035;48.900;9.188;2023-04-03T17:01:47;6.80;1.00
38239;DHT22;24035;48.900;9.188;2023-04-03T17:04:13;7.00;1.00
38239;DHT22;24035;48.900;9.188;2023-04-03T17:06:39;7.10;1.00
38239;DHT22;24035;48.900;9.188;2023-04-03T17:09:05;7.20;1.00
38239;DHT22;24035;48.900;9.188;2023-04-03T17:11:31;7.10;1.00
38239;DHT22;24035;48.900;9.188;2023-04-03T17:13:57;7.00;1.00
38239;DHT22;24035;48.900;9.188;2023-04-03T17:16:24;6.80;1.00
38239;DHT22;24035;48.900;9.188;2023-04-03T17:18:50;6.60;1.00
38239;DHT22;24035;48.900;9.188;2023-04-03T17:21:17;6.50;1.00
38239;DHT22;24035;48.900;9.188;2023-04-03T17:23:46;6.50;1.00
38239;DHT22;24035;48.900;9.188;2023-04-03T17:26:12;6.30;1.00
38239;DHT22;24035;48.900;9.188;2023-04-03T17:28:38;6.20;1.00
38239;DHT22;24035;48.900;9.188;2023-04-03T17:31:05;6.20;1.00
38239;DHT22;24035;48.900;9.188;2023-04-03T17:33:32;6.10;1.00
38239;DHT22;24035;48.900;9.188;2023-04-03T17:35:59;6.10;1.00
38239;DHT22;24035;48.900;9.188;2023-04-03T17:38:27;6.00;1.00
38239;DHT22;24035;48.900;9.188;2023-04-03T17:40:59;5.90;1.00
38239;DHT22;24035;48.900;9.188;2023-04-03T17:43:25;6.00;1.00
38239;DHT22;24035;48.900;9.188;2023-04-03T17:45:51;5.90;1.00
38239;DHT22;24035;48.900;9.188;2023-04-03T17:48:17;5.80;1.00
38239;DHT22;24035;48.900;9.188;2023-04-03T17:50:43;5.80;1.00
38239;DHT22;24035;48.900;9.188;2023-04-03T17:53:09;5.70;1.00
38239;DHT22;24035;48.900;9.188;2023-04-03T17:55:38;5.60;1.00